Time;durP1;ratioP1;P1;durP2;ratioP2;P2;SDS_P1;SDS_P2;PMS_P1;PMS_P2;Temp;Humidity;BMP_temperature;BMP_pressure;BME280_temperature;BME280_humidity;BME280_pressure;Samples;Min_cycle;Max_cycle;Signal;HPM_P1;HPM_P2
2023/03/01 00:00:30;;;;;;;21.23;11.73;;;;;;;-0.62;100.00;96396.53;1022316;29;20023;-67
2023/03/01 00:01:04;;;;;;;18.40;10.95;;;;;;;-0.68;100.00;96397.22;1022348;29;20023;-66
2023/03/01 00:01:35;;;;;;;25.64;11.60;;;;;;;-0.65;100.00;96389.16;1022864;28;20039;-68
2023/03/01 00:02:06;;;;;;;22.13;11.40;;;;;;;-0.71;100.00;96394.00;1026216;28;20061;-68
2023/03/01 00:02:37;;;;;;;21.64;11.02;;;;;;;-0.66;100.00;96397.88;1026321;28;20031;-67
2023/03/01 00:03:07;;;;;;;20.17;10.82;;;;;;;-0.68;100.00;96392.88;1022368;29;20038;-67
2023/03/01 00:03:37;;;;;;;22.42;11.52;;;;;;;-0.64;100.00;96390.75;1022093;29;20110;-66
2023/03/01 00:04:08;;;;;;;26.10;11.90;;;;;;;-0.66;100.00;96395.28;1022346;29;20425;-66
2023/03/01 00:04:38;;;;;;;22.92;11.77;;;;;;;-0.65;100.00;96394.31;1022049;29;20093;-67
2023/03/01 00:05:09;;;;;;;22.77;10.95;;;;;;;-0.74;100.00;96383.25;1022402;28;20038;-67
2023/03/01 00:05:46;;;;;;;22.58;10.77;;;;;;;-0.65;100.00;96396.88;1026326;28;20756;-66
2023/03/01 00:06:17;;;;;;;21.36;11.48;;;;;;;-0.64;100.00;96393.31;1022358;29;20413;-69
2023/03/01 00:06:48;;;;;;;23.10;11.36;;;;;;;-0.64;100.00;96393.31;1021201;29;20051;-67
2023/03/01 00:07:19;;;;;;;23.80;12.32;;;;;;;-0.64;100.00;96393.31;1023348;28;20042;-68
2023/03/01 00:07:52;;;;;;;19.00;10.93;;;;;;;-0.65;100.00;96391.72;1026289;28;20390;-67
2023/03/01 00:08:23;;;;;;;19.44;11.38;;;;;;;-0.68;100.00;96386.91;1026146;28;20022;-66
2023/03/01 00:08:54;;;;;;;23.06;12.00;;;;;;;-0.61;100.00;96390.38;1017753;29;20043;-67
2023/03/01 00:09:24;;;;;;;19.50;11.10;;;;;;;-0.63;100.00;96392.34;1009873;29;20054;-67
2023/03/01 00:09:55;;;;;;;20.15;11.45;;;;;;;-0.64;100.00;96385.59;1010460;29;20111;-66
2023/03/01 00:10:26;;;;;;;21.08;10.93;;;;;;;-0.63;100.00;96388.00;1018186;29;20028;-69
2023/03/01 00:11:20;;;;;;;21.20;11.10;;;;;;;-0.64;100.00;96377.84;1022493;28;20031;-67
2023/03/01 00:11:51;;;;;;;22.18;11.22;;;;;;;-0.65;100.00;96387.38;1025912;28;20266;-66
2023/03/01 00:12:21;;;;;;;20.88;11.02;;;;;;;-0.64;100.00;96388.16;1022397;29;20461;-67
2023/03/01 00:12:51;;;;;;;22.35;11.02;;;;;;;-0.67;100.00;96383.34;1018386;29;20063;-68
2023/03/01 00:13:22;;;;;;;19.85;11.65;;;;;;;-0.63;100.00;96384.63;1018782;29;20039;-67
2023/03/01 00:13:54;;;;;;;21.27;11.85;;;;;;;-0.72;100.00;96369.22;1018906;29;20405;-66
2023/03/01 00:14:24;;;;;;;26.06;11.08;;;;;;;-0.64;100.00;96385.59;1015409;29;20020;-68
2023/03/01 00:14:55;;;;;;;23.85;11.70;;;;;;;-0.65;100.00;96381.41;1023067;28;20042;-68
2023/03/01 00:15:25;;;;;;;19.52;11.02;;;;;;;-0.72;100.00;96371.81;1026656;28;20081;-66
2023/03/01 00:15:56;;;;;;;22.48;11.68;;;;;;;-0.64;100.00;96383.00;1027159;28;20023;-66
2023/03/01 00:16:28;;;;;;;22.10;11.77;;;;;;;-0.64;100.00;96383.81;1026868;28;20022;-69
2023/03/01 00:16:59;;;;;;;23.38;11.56;;;;;;;-0.69;100.00;96375.03;1026674;28;20031;-67
2023/03/01 00:17:29;;;;;;;23.60;11.88;;;;;;;-0.66;100.00;96377.25;1022778;28;20031;-66
2023/03/01 00:17:59;;;;;;;20.85;10.82;;;;;;;-0.63;100.00;96379.47;1022677;28;20035;-68
2023/03/01 00:18:30;;;;;;;19.45;10.77;;;;;;;-0.62;100.00;96381.88;1026410;28;20677;-69
2023/03/01 00:19:00;;;;;;;23.40;12.23;;;;;;;-0.64;100.00;96378.66;1026666;28;20039;-65
2023/03/01 00:19:32;;;;;;;22.67;10.98;;;;;;;-0.62;100.00;96375.91;1026551;28;20125;-68
2023/03/01 00:20:03;;;;;;;22.54;12.14;;;;;;;-0.62;100.00;96375.91;1023071;28;20035;-67
2023/03/01 00:20:34;;;;;;;20.94;11.48;;;;;;;-0.62;100.00;96375.91;1026676;28;20037;-66
2023/03/01 00:21:05;;;;;;;20.30;11.80;;;;;;;-0.62;100.00;96373.34;1026729;28;20035;-67
2023/03/01 00:21:35;;;;;;;20.13;10.95;;;;;;;-0.69;100.00;96365.50;1026703;28;20125;-67
2023/03/01 00:22:06;;;;;;;22.75;11.82;;;;;;;-0.69;100.00;96367.28;1026648;28;20035;-67
2023/03/01 00:22:36;;;;;;;21.38;11.30;;;;;;;-0.63;100.00;96374.31;1026748;28;20109;-68
2023/03/01 00:23:07;;;;;;;22.48;11.07;;;;;;;-0.63;100.00;96371.75;1026855;28;20436;-66
2023/03/01 00:23:37;;;;;;;21.95;12.15;;;;;;;-0.67;100.00;96373.06;1026765;28;20479;-65
2023/03/01 00:24:08;;;;;;;24.50;12.02;;;;;;;-0.63;100.00;96374.31;1023000;29;20019;-69
2023/03/01 00:24:39;;;;;;;19.80;11.02;;;;;;;-0.62;100.00;96376.72;1023040;29;20030;-66
2023/03/01 00:25:09;;;;;;;19.48;10.55;;;;;;;-0.69;100.00;96367.28;1022953;29;20027;-67
2023/03/01 00:25:43;;;;;;;19.92;11.20;;;;;;;-0.68;100.00;96371.47;1018669;29;20066;-67
2023/03/01 00:26:14;;;;;;;20.96;10.52;;;;;;;-0.65;100.00;96371.91;1015379;29;20032;-67
2023/03/01 00:26:44;;;;;;;19.70;10.90;;;;;;;-0.63;100.00;96375.13;1026688;28;20023;-67
2023/03/01 00:27:14;;;;;;;20.95;11.60;;;;;;;-0.63;100.00;96379.47;1018610;29;20027;-68
2023/03/01 00:27:46;;;;;;;21.40;12.02;;;;;;;-0.63;100.00;96374.31;1018762;29;20030;-68
2023/03/01 00:28:17;;;;;;;21.96;11.08;;;;;;;-0.62;100.00;96381.06;1007263;29;20499;-67
2023/03/01 00:28:47;;;;;;;22.20;11.70;;;;;;;-0.63;100.00;96379.47;1018844;29;20028;-65
2023/03/01 00:29:18;;;;;;;23.13;11.63;;;;;;;-0.63;100.00;96371.75;1022421;29;20114;-65
2023/03/01 00:29:48;;;;;;;21.08;11.77;;;;;;;-0.63;100.00;96374.31;1018683;29;20023;-66
2023/03/01 00:30:19;;;;;;;20.73;11.85;;;;;;;-0.62;100.00;96375.91;1022736;28;20027;-68
2023/03/01 00:30:49;;;;;;;19.88;10.63;;;;;;;-0.63;100.00;96374.31;1022963;28;20019;-66
2023/03/01 00:31:22;;;;;;;23.10;12.00;;;;;;;-0.66;100.00;96366.94;1014890;29;20410;-67
2023/03/01 00:31:52;;;;;;;22.56;11.68;;;;;;;-0.62;100.00;96374.13;1015093;29;20030;-66
2023/03/01 00:32:23;;;;;;;24.38;11.52;;;;;;;-0.68;100.00;96359.38;1018930;29;20031;-68
2023/03/01 00:32:53;;;;;;;20.90;11.77;;;;;;;-0.61;100.00;96372.34;1022988;28;20027;-68
2023/03/01 00:33:23;;;;;;;20.73;11.02;;;;;;;-0.62;100.00;96368.97;1026794;28;20564;-67
2023/03/01 00:34:02;;;;;;;25.10;12.50;;;;;;;-0.69;100.00;96362.13;1022586;28;20023;-65
2023/03/01 00:34:32;;;;;;;20.00;10.94;;;;;;;-0.62;100.00;96370.75;1019931;29;20024;-67
2023/03/01 00:35:03;;;;;;;23.33;12.15;;;;;;;-0.63;100.00;96366.59;1022844;29;20089;-66
2023/03/01 00:35:34;;;;;;;19.08;10.77;;;;;;;-0.64;100.00;96362.41;1016689;29;20024;-66
2023/03/01 00:36:04;;;;;;;19.20;11.60;;;;;;;-0.63;100.00;96369.97;1014540;29;20020;-67
2023/03/01 00:36:36;;;;;;;22.00;11.43;;;;;;;-0.67;100.00;96363.56;1018808;29;20042;-67
2023/03/01 00:37:06;;;;;;;24.90;11.34;;;;;;;-0.63;100.00;96361.44;1022799;29;20314;-66
2023/03/01 00:37:37;;;;;;;21.33;11.55;;;;;;;-0.62;100.00;96361.25;1019157;29;20114;-68
2023/03/01 00:38:08;;;;;;;20.90;11.13;;;;;;;-0.63;100.00;96353.72;1019159;28;20031;-67
2023/03/01 00:38:40;;;;;;;22.33;12.18;;;;;;;-0.64;100.00;96362.41;1022813;29;20830;-69
2023/03/01 00:39:13;;;;;;;21.14;11.58;;;;;;;-0.62;100.00;96357.88;1013079;29;20021;-63
2023/03/01 00:39:43;;;;;;;21.80;11.92;;;;;;;-0.63;100.00;96358.88;1014815;29;20123;-66
2023/03/01 00:40:16;;;;;;;19.20;11.27;;;;;;;-0.63;100.00;96362.22;1014834;29;20095;-66
2023/03/01 00:40:46;;;;;;;22.92;11.76;;;;;;;-0.62;100.00;96365.59;1018179;29;20027;-68
2023/03/01 00:41:17;;;;;;;21.63;10.85;;;;;;;-0.84;100.00;96323.47;1023559;28;20397;-67
2023/03/01 00:41:48;;;;;;;20.40;11.02;;;;;;;-0.68;100.00;96350.84;1022754;29;20155;-66
2023/03/01 00:42:18;;;;;;;21.65;11.77;;;;;;;-0.63;100.00;96364.00;1018317;29;20597;-67
2023/03/01 00:42:49;;;;;;;22.25;11.13;;;;;;;-0.65;100.00;96355.66;1018820;29;20027;-66
2023/03/01 00:43:19;;;;;;;23.75;10.77;;;;;;;-0.64;100.00;96360.63;1019035;28;20035;-68
2023/03/01 00:43:50;;;;;;;18.92;11.50;;;;;;;-0.72;100.00;96346.03;1022782;29;20034;-67
2023/03/01 00:44:20;;;;;;;21.55;11.85;;;;;;;-0.67;100.00;96355.00;1018579;29;20042;-68
2023/03/01 00:44:51;;;;;;;19.92;11.82;;;;;;;-0.62;100.00;96358.66;1018799;29;20031;-69
2023/03/01 00:45:21;;;;;;;20.35;11.15;;;;;;;-0.62;100.00;96356.09;1022461;29;20024;-67
2023/03/01 00:45:52;;;;;;;19.58;10.82;;;;;;;-0.63;100.00;96359.66;1022505;28;20030;-66
2023/03/01 00:46:24;;;;;;;22.15;11.02;;;;;;;-0.63;100.00;96354.50;1022247;29;20035;-68
2023/03/01 00:46:54;;;;;;;20.18;11.46;;;;;;;-0.71;100.00;96342.47;1022593;28;20031;-67
2023/03/01 00:47:25;;;;;;;19.33;10.73;;;;;;;-0.63;100.00;96356.28;1018377;29;20031;-67
2023/03/01 00:47:55;;;;;;;22.90;11.27;;;;;;;-0.63;100.00;96361.44;1021996;28;20027;-66
2023/03/01 00:48:26;;;;;;;17.88;10.65;;;;;;;-0.66;100.00;96354.06;1018092;29;20040;-66
2023/03/01 00:48:56;;;;;;;22.13;11.77;;;;;;;-0.65;100.00;96355.66;1014379;29;20561;-65
2023/03/01 00:49:27;;;;;;;22.38;11.90;;;;;;;-0.68;100.00;96350.84;1017617;29;20036;-68
2023/03/01 00:49:57;;;;;;;17.76;10.88;;;;;;;-0.64;100.00;96357.25;1017932;29;20758;-68
2023/03/01 00:50:28;;;;;;;23.13;11.57;;;;;;;-0.65;100.00;96350.50;1022071;28;20031;-67
2023/03/01 00:51:14;;;;;;;24.15;11.77;;;;;;;-0.67;100.00;96352.44;1022015;29;20038;-65
2023/03/01 00:51:45;;;;;;;18.94;11.26;;;;;;;-0.63;100.00;96358.88;1024347;28;20134;-68
2023/03/01 00:52:15;;;;;;;23.77;11.80;;;;;;;-0.63;100.00;96354.50;1022129;29;20678;-65
2023/03/01 00:52:46;;;;;;;19.67;11.43;;;;;;;-0.65;100.00;96358.22;1022239;29;20377;-68
2023/03/01 00:53:16;;;;;;;22.88;11.43;;;;;;;-0.64;100.00;96350.31;1020620;29;20019;-66
2023/03/01 00:53:47;;;;;;;21.42;11.20;;;;;;;-0.64;100.00;96354.66;1018534;28;20035;-68
2023/03/01 00:54:18;;;;;;;24.33;11.57;;;;;;;-0.62;100.00;96355.28;1018201;29;20891;-66
2023/03/01 00:54:48;;;;;;;23.52;11.70;;;;;;;-0.69;100.00;96339.75;1019294;28;20028;-66
2023/03/01 00:55:18;;;;;;;20.67;11.25;;;;;;;-0.65;100.00;96353.06;1018113;29;20035;-69
2023/03/01 00:55:49;;;;;;;25.65;12.35;;;;;;;-0.63;100.00;96353.72;1014613;29;20039;-67
2023/03/01 00:56:19;;;;;;;22.98;11.90;;;;;;;-0.63;100.00;96354.50;1022081;29;20027;-67
2023/03/01 00:56:50;;;;;;;25.73;12.00;;;;;;;-0.71;100.00;96339.91;1014225;29;20104;-67
2023/03/01 00:57:20;;;;;;;20.25;11.70;;;;;;;-0.74;100.00;96337.72;1018105;29;20016;-67
2023/03/01 00:57:51;;;;;;;21.20;12.18;;;;;;;-0.72;100.00;96335.72;1022293;29;20031;-66
2023/03/01 00:58:21;;;;;;;21.90;11.43;;;;;;;-0.63;100.00;96353.72;1025905;28;20027;-67
2023/03/01 00:58:52;;;;;;;20.15;11.43;;;;;;;-0.63;100.00;96348.56;1026217;28;20034;-66
2023/03/01 00:59:22;;;;;;;21.10;12.00;;;;;;;-0.66;100.00;96343.75;1025317;28;20488;-67
2023/03/01 00:59:53;;;;;;;22.73;11.57;;;;;;;-0.70;100.00;96333.00;1026083;28;20034;-67
2023/03/01 01:00:23;;;;;;;21.45;12.00;;;;;;;-0.65;100.00;96346.13;1022115;29;20561;-65
2023/03/01 01:00:54;;;;;;;20.25;10.65;;;;;;;-0.72;100.00;96340.88;1018012;29;20056;-67
2023/03/01 01:01:29;;;;;;;20.25;12.00;;;;;;;-0.68;100.00;96335.38;1018382;29;20031;-66
2023/03/01 01:01:59;;;;;;;22.22;11.90;;;;;;;-0.72;100.00;96338.31;1018169;29;20163;-66
2023/03/01 01:02:32;;;;;;;20.75;11.73;;;;;;;-0.65;100.00;96340.97;1022501;29;20373;-67
2023/03/01 01:03:02;;;;;;;22.50;11.52;;;;;;;-0.61;100.00;96344.00;1026161;28;20033;-68
2023/03/01 01:03:33;;;;;;;21.70;11.88;;;;;;;-0.61;100.00;96349.16;1025851;28;20050;-68
2023/03/01 01:04:08;;;;;;;21.45;13.05;;;;;;;-0.65;100.00;96338.41;1022069;28;20027;-68
2023/03/01 01:04:38;;;;;;;19.98;10.90;;;;;;;-0.60;100.00;96343.03;1022186;29;20162;-68
2023/03/01 01:05:09;;;;;;;23.40;11.65;;;;;;;-0.64;100.00;96336.63;1021893;28;20100;-68
2023/03/01 01:05:40;;;;;;;21.25;12.27;;;;;;;-0.63;100.00;96343.41;1022932;28;20054;-68
2023/03/01 01:06:24;;;;;;;19.45;10.68;;;;;;;-0.63;100.00;96343.41;1026404;28;20023;-68
2023/03/01 01:06:54;;;;;;;21.12;11.22;;;;;;;-0.72;100.00;96327.22;1025916;28;20471;-66
2023/03/01 01:07:25;;;;;;;26.08;12.10;;;;;;;-0.63;100.00;96340.81;1022170;28;20031;-66
2023/03/01 01:07:55;;;;;;;22.45;11.35;;;;;;;-0.67;100.00;96329.25;1018108;29;20548;-68
2023/03/01 01:08:26;;;;;;;22.60;11.80;;;;;;;-0.63;100.00;96338.25;1018145;29;20422;-68
2023/03/01 01:08:56;;;;;;;20.88;11.55;;;;;;;-0.66;100.00;96339.41;1021954;28;20484;-65
2023/03/01 01:09:27;;;;;;;19.33;11.70;;;;;;;-0.63;100.00;96338.25;1021561;28;20079;-67
2023/03/01 01:09:57;;;;;;;23.10;11.13;;;;;;;-0.62;100.00;96329.53;1021942;29;20027;-68
2023/03/01 01:10:28;;;;;;;20.80;11.82;;;;;;;-0.62;100.00;96332.91;1022163;29;20046;-68
2023/03/01 01:10:58;;;;;;;20.00;10.65;;;;;;;-0.63;100.00;96328.72;1022008;28;20031;-67
2023/03/01 01:11:29;;;;;;;20.65;11.55;;;;;;;-0.61;100.00;96331.91;1026179;28;20090;-68
2023/03/01 01:11:59;;;;;;;20.88;11.52;;;;;;;-0.64;100.00;96326.31;1029797;28;20022;-68
2023/03/01 01:12:29;;;;;;;18.73;11.10;;;;;;;-0.61;100.00;96331.13;1022171;29;20019;-68
2023/03/01 01:13:00;;;;;;;19.95;11.18;;;;;;;-0.61;100.00;96328.53;1018123;29;20777;-67
2023/03/01 01:13:30;;;;;;;22.38;11.90;;;;;;;-0.62;100.00;96329.53;1018038;29;20031;-68
2023/03/01 01:14:01;;;;;;;19.40;10.30;;;;;;;-0.66;100.00;96323.13;1010405;29;20029;-67
2023/03/01 01:14:31;;;;;;;20.77;11.10;;;;;;;-0.66;100.00;96318.78;1022295;28;20031;-67
2023/03/01 01:15:02;;;;;;;20.45;11.57;;;;;;;-0.62;100.00;96324.38;1022104;29;20020;-67
2023/03/01 01:15:35;;;;;;;19.15;11.48;;;;;;;-0.61;100.00;96331.91;1021985;28;20031;-67
2023/03/01 01:16:06;;;;;;;19.48;11.74;;;;;;;-0.64;100.00;96327.13;1021381;29;20577;-67
2023/03/01 01:16:36;;;;;;;21.80;11.90;;;;;;;-0.67;100.00;96316.34;1018623;29;20035;-66
2023/03/01 01:17:07;;;;;;;22.00;10.82;;;;;;;-0.62;100.00;96329.53;1020810;28;20027;-65
2023/03/01 01:17:37;;;;;;;19.83;11.52;;;;;;;-0.63;100.00;96333.88;1014230;29;20028;-67
2023/03/01 01:18:08;;;;;;;22.25;12.00;;;;;;;-0.71;100.00;96314.13;1018289;29;20034;-67
2023/03/01 01:18:38;;;;;;;20.42;11.73;;;;;;;-0.69;100.00;96318.34;1010169;29;20028;-66
2023/03/01 01:19:10;;;;;;;20.98;11.60;;;;;;;-0.71;100.00;96306.41;1018019;29;20506;-67
2023/03/01 01:19:40;;;;;;;23.84;12.10;;;;;;;-0.72;100.00;96315.13;1025302;28;20065;-67
2023/03/01 01:20:11;;;;;;;21.05;11.43;;;;;;;-0.72;100.00;96307.41;1026002;28;20030;-67
2023/03/01 01:20:42;;;;;;;22.75;11.57;;;;;;;-0.64;100.00;96326.31;1018299;29;20027;-67
2023/03/01 01:21:14;;;;;;;20.73;11.20;;;;;;;-0.68;100.00;96317.34;1018091;29;20036;-67
2023/03/01 01:21:45;;;;;;;22.92;13.02;;;;;;;-0.72;100.00;96309.97;1014348;29;20035;-66
2023/03/01 01:22:15;;;;;;;22.80;11.55;;;;;;;-0.63;100.00;96318.44;1014850;29;20030;-66
2023/03/01 01:22:46;;;;;;;23.00;12.15;;;;;;;-0.63;100.00;96322.78;1022242;29;20024;-66
2023/03/01 01:23:16;;;;;;;19.95;11.32;;;;;;;-0.65;100.00;96322.16;1022271;28;20065;-68
2023/03/01 01:23:47;;;;;;;19.95;10.90;;;;;;;-0.65;100.00;96324.72;1025866;28;20063;-68
2023/03/01 01:24:17;;;;;;;21.73;10.80;;;;;;;-0.72;100.00;96309.97;1025986;28;20033;-68
2023/03/01 01:24:48;;;;;;;19.55;10.48;;;;;;;-0.65;100.00;96324.72;1018276;29;20049;-67
2023/03/01 01:25:18;;;;;;;22.73;12.10;;;;;;;-0.73;100.00;96313.53;1017828;29;20038;-66
2023/03/01 01:25:49;;;;;;;23.35;12.07;;;;;;;-0.65;100.00;96317.00;1010310;29;20638;-67
2023/03/01 01:26:24;;;;;;;24.27;11.88;;;;;;;-0.64;100.00;96313.44;1010466;29;20082;-66
2023/03/01 01:26:54;;;;;;;19.64;11.52;;;;;;;-0.65;100.00;96319.56;1018288;29;20030;-67
2023/03/01 01:27:25;;;;;;;19.90;11.13;;;;;;;-0.72;100.00;96309.97;1022703;28;20046;-65
2023/03/01 01:27:55;;;;;;;19.17;10.48;;;;;;;-0.65;100.00;96311.84;1022047;29;20768;-64
2023/03/01 01:28:26;;;;;;;22.70;11.23;;;;;;;-0.64;100.00;96313.44;1018090;29;20024;-67
2023/03/01 01:28:56;;;;;;;23.10;11.52;;;;;;;-0.63;100.00;96327.94;1020189;28;20016;-65
2023/03/01 01:29:27;;;;;;;21.20;11.77;;;;;;;-0.71;100.00;96308.97;1022095;28;20035;-68
2023/03/01 01:29:57;;;;;;;21.58;11.25;;;;;;;-0.72;100.00;96309.97;1026759;28;20026;-67
2023/03/01 01:30:28;;;;;;;22.77;12.07;;;;;;;-0.66;100.00;96318.78;1022752;28;20504;-66
2023/03/01 01:30:58;;;;;;;21.00;11.02;;;;;;;-0.66;100.00;96320.56;1023079;29;20023;-66
2023/03/01 01:31:29;;;;;;;21.13;11.07;;;;;;;-0.76;100.00;96308.72;1026819;28;20023;-68
2023/03/01 01:32:00;;;;;;;24.05;12.65;;;;;;;-0.71;100.00;96316.72;1026639;28;20018;-65
2023/03/01 01:32:30;;;;;;;21.08;11.27;;;;;;;-0.71;100.00;96313.34;1026322;28;20073;-66
2023/03/01 01:33:00;;;;;;;20.98;11.25;;;;;;;-0.72;100.00;96307.41;1026898;28;20065;-66
2023/03/01 01:33:31;;;;;;;19.92;10.68;;;;;;;-0.68;100.00;96309.63;1026975;28;20039;-68
2023/03/01 01:34:02;;;;;;;22.20;11.40;;;;;;;-0.66;100.00;96315.41;1026721;28;20019;-67
2023/03/01 01:34:33;;;;;;;23.52;12.04;;;;;;;-0.65;100.00;96301.53;1022113;29;20043;-67
2023/03/01 01:35:04;;;;;;;23.05;12.23;;;;;;;-0.72;100.00;96302.25;1022909;28;20055;-65
2023/03/01 01:35:34;;;;;;;22.27;11.50;;;;;;;-0.75;100.00;96304.38;1022064;29;20533;-68
2023/03/01 01:36:05;;;;;;;19.60;11.55;;;;;;;-0.82;100.00;96306.84;1022813;29;20699;-68
2023/03/01 01:36:36;;;;;;;24.98;12.28;;;;;;;-0.82;100.00;96309.44;1014960;29;20450;-65
2023/03/01 01:37:07;;;;;;;21.80;11.57;;;;;;;-0.90;100.00;96303.59;1011146;29;20027;-67
2023/03/01 01:37:38;;;;;;;19.34;11.08;;;;;;;-0.86;100.00;96307.41;1022497;28;20095;-66
2023/03/01 01:38:08;;;;;;;25.00;13.18;;;;;;;-0.88;100.00;96307.56;1015084;29;20040;-65
2023/03/01 01:38:39;;;;;;;23.33;12.65;;;;;;;-0.84;100.00;96303.69;1018855;29;20036;-68
2023/03/01 01:39:12;;;;;;;21.20;11.98;;;;;;;-0.90;100.00;96296.66;1021340;28;20031;-68
2023/03/01 01:39:43;;;;;;;21.18;11.22;;;;;;;-0.91;100.00;96302.75;1027066;28;20046;-68
2023/03/01 01:40:13;;;;;;;27.52;11.85;;;;;;;-0.94;100.00;96305.69;1030810;28;20171;-68
2023/03/01 01:40:47;;;;;;;19.60;11.27;;;;;;;-0.94;100.00;96308.25;1029409;28;20523;-67
2023/03/01 01:41:18;;;;;;;22.64;12.26;;;;;;;-0.94;100.00;96310.84;1022821;29;20043;-67
2023/03/01 01:41:48;;;;;;;23.38;11.75;;;;;;;-0.95;100.00;96304.09;1022547;29;20386;-66
2023/03/01 01:42:18;;;;;;;20.90;10.88;;;;;;;-1.00;100.00;96296.91;1019549;28;20039;-67
2023/03/01 01:42:49;;;;;;;22.20;12.35;;;;;;;-0.96;100.00;96307.66;1027048;28;20529;-67
2023/03/01 01:43:23;;;;;;;25.60;11.88;;;;;;;-0.99;100.00;96302.84;1030849;28;20031;-65
2023/03/01 01:44:23;;;;;;;22.02;10.96;;;;;;;-1.01;100.00;96310.72;1026989;28;20090;-66
2023/03/01 01:45:39;;;;;;;21.50;10.50;;;;;;;-0.99;100.00;96310.56;1026877;28;20124;-66
2023/03/01 01:46:28;;;;;;;24.66;11.84;;;;;;;-1.08;100.00;96304.69;1025732;28;20513;-67
2023/03/01 01:47:05;;;;;;;21.08;10.82;;;;;;;-1.05;100.00;96309.50;1026810;28;20038;-67
2023/03/01 01:47:36;;;;;;;19.94;11.08;;;;;;;-1.13;100.00;96296.72;1014736;29;20514;-67
2023/03/01 01:48:14;;;;;;;21.58;11.25;;;;;;;-1.14;100.00;96299.44;1012893;29;20036;-67
2023/03/01 01:48:46;;;;;;;22.04;11.68;;;;;;;-1.12;100.00;96305.22;1018812;29;20027;-67
2023/03/01 01:49:41;;;;;;;22.94;12.06;;;;;;;-1.13;100.00;96303.63;1022000;29;20107;-66
2023/03/01 01:50:14;;;;;;;21.54;11.92;;;;;;;-1.13;100.00;96306.22;1018850;29;20023;-67
2023/03/01 01:50:47;;;;;;;27.90;11.48;;;;;;;-1.14;100.00;96307.16;1010980;29;20028;-67
2023/03/01 01:51:24;;;;;;;22.52;12.00;;;;;;;-1.21;100.00;96299.34;1014818;29;20102;-66
2023/03/01 01:52:25;;;;;;;26.18;12.04;;;;;;;-1.15;100.00;96303.00;1023084;29;20027;-66
2023/03/01 01:52:55;;;;;;;21.95;11.07;;;;;;;-1.13;100.00;96309.59;1022809;29;20035;-67
2023/03/01 01:53:26;;;;;;;22.55;11.68;;;;;;;-1.15;100.00;96301.22;1026490;28;20535;-66
2023/03/01 01:53:58;;;;;;;22.70;12.45;;;;;;;-1.13;100.00;96307.00;1026800;28;20587;-66
2023/03/01 01:54:38;;;;;;;22.20;11.90;;;;;;;-1.14;100.00;96302.84;1023198;28;20396;-69
2023/03/01 01:55:11;;;;;;;28.12;13.04;;;;;;;-1.16;100.00;96301.41;1026523;28;20061;-67
2023/03/01 01:55:46;;;;;;;21.68;11.46;;;;;;;-1.22;100.00;96293.41;1021526;29;20093;-68
2023/03/01 01:56:16;;;;;;;23.56;12.44;;;;;;;-1.14;100.00;96304.59;1022696;29;20586;-67
2023/03/01 01:56:51;;;;;;;27.52;11.40;;;;;;;-1.17;100.00;96300.63;1026707;28;20023;-68
2023/03/01 01:57:27;;;;;;;24.12;12.46;;;;;;;-1.19;100.00;96295.63;1019209;29;20596;-68
2023/03/01 01:57:59;;;;;;;22.84;11.56;;;;;;;-1.15;100.00;96308.16;1011888;29;20601;-68
2023/03/01 01:58:30;;;;;;;19.82;10.72;;;;;;;-1.20;100.00;96294.03;1015404;29;20016;-68
2023/03/01 01:59:00;;;;;;;23.15;11.98;;;;;;;-1.19;100.00;96302.56;1016196;29;20036;-68
2023/03/01 01:59:31;;;;;;;21.40;12.05;;;;;;;-1.12;100.00;96302.66;1020402;29;20692;-67
2023/03/01 02:00:05;;;;;;;23.25;11.75;;;;;;;-1.13;100.00;96301.84;1020223;29;20045;-67
2023/03/01 02:00:36;;;;;;;23.96;11.70;;;;;;;-1.14;100.00;96300.25;1024873;28;20440;-68
2023/03/01 02:01:06;;;;;;;22.02;12.27;;;;;;;-1.18;100.00;96304.13;1020660;29;20019;-67
2023/03/01 02:01:37;;;;;;;24.70;11.55;;;;;;;-1.16;100.00;96304.78;1014178;29;20068;-68
2023/03/01 02:02:07;;;;;;;26.42;12.10;;;;;;;-1.18;100.00;96304.13;1013013;29;20031;-68
2023/03/01 02:02:38;;;;;;;22.27;12.45;;;;;;;-1.22;100.00;96293.41;1015610;29;20031;-68
2023/03/01 02:03:10;;;;;;;23.90;12.07;;;;;;;-1.22;100.00;96298.53;1015550;29;20024;-66
2023/03/01 02:03:42;;;;;;;22.68;12.18;;;;;;;-1.20;100.00;96306.09;1018656;29;20007;-66
2023/03/01 02:04:12;;;;;;;25.56;12.40;;;;;;;-1.24;100.00;96297.94;1019566;29;20058;-68
2023/03/01 02:04:43;;;;;;;24.25;12.30;;;;;;;-1.19;100.00;96302.56;1019399;29;20031;-68
2023/03/01 02:05:49;;;;;;;25.30;12.77;;;;;;;-1.18;100.00;96299.00;1016255;29;20012;-65
2023/03/01 02:06:45;;;;;;;21.84;12.90;;;;;;;-1.17;100.00;96300.63;1016080;29;20410;-68
2023/03/01 02:07:21;;;;;;;22.22;11.70;;;;;;;-1.19;100.00;96302.56;1016684;29;20048;-68
2023/03/01 02:07:51;;;;;;;24.40;12.30;;;;;;;-1.17;100.00;96295.47;1015493;29;20025;-68
2023/03/01 02:08:23;;;;;;;21.83;11.70;;;;;;;-1.19;100.00;96303.34;1015261;29;20028;-68
2023/03/01 02:08:54;;;;;;;25.46;11.52;;;;;;;-1.24;100.00;96287.63;1024171;28;20015;-68
2023/03/01 02:09:24;;;;;;;26.65;13.07;;;;;;;-1.25;100.00;96292.94;1015018;29;20038;-66
2023/03/01 02:09:55;;;;;;;24.17;11.55;;;;;;;-1.30;100.00;96280.59;1015457;29;20012;-67
2023/03/01 02:10:25;;;;;;;23.88;11.57;;;;;;;-1.22;100.00;96297.75;1018705;29;20016;-66
2023/03/01 02:10:56;;;;;;;30.10;12.75;;;;;;;-1.23;100.00;96299.53;1023216;29;20038;-68
2023/03/01 02:11:27;;;;;;;25.20;12.57;;;;;;;-1.26;100.00;96292.16;1015298;29;20023;-66
2023/03/01 02:11:57;;;;;;;27.18;12.66;;;;;;;-1.28;100.00;96283.00;1015260;29;20016;-67
2023/03/01 02:12:28;;;;;;;22.35;12.07;;;;;;;-1.22;100.00;96297.75;1019296;29;20310;-66
2023/03/01 02:12:58;;;;;;;22.10;12.13;;;;;;;-1.26;100.00;96278.47;1019419;29;20046;-66
2023/03/01 02:13:29;;;;;;;21.02;11.73;;;;;;;-1.23;100.00;96293.59;1015240;29;20024;-67
2023/03/01 02:13:59;;;;;;;21.30;11.73;;;;;;;-1.27;100.00;96290.56;1019048;29;20020;-65
2023/03/01 02:14:30;;;;;;;21.00;11.75;;;;;;;-1.26;100.00;96292.16;1019295;29;20019;-68
2023/03/01 02:15:00;;;;;;;22.60;11.50;;;;;;;-1.30;100.00;96290.09;1019544;28;20023;-68
2023/03/01 02:15:34;;;;;;;21.67;11.93;;;;;;;-1.28;100.00;96280.41;1023019;28;20413;-67
2023/03/01 02:16:07;;;;;;;24.28;11.88;;;;;;;-1.33;100.00;96280.94;1020335;28;20086;-67
2023/03/01 02:16:38;;;;;;;25.78;11.82;;;;;;;-1.29;100.00;96292.50;1027272;28;20054;-68
2023/03/01 02:17:09;;;;;;;21.58;11.82;;;;;;;-1.28;100.00;96298.44;1027090;28;20019;-67
2023/03/01 02:17:40;;;;;;;20.88;11.80;;;;;;;-1.31;100.00;96289.31;1019944;29;20585;-67
2023/03/01 02:18:11;;;;;;;21.70;11.90;;;;;;;-1.32;100.00;96287.69;1015331;29;20020;-66
2023/03/01 02:18:42;;;;;;;23.66;12.52;;;;;;;-1.32;100.00;96286.91;1007468;29;20021;-66
2023/03/01 02:19:21;;;;;;;24.35;12.60;;;;;;;-1.38;100.00;96278.09;1015066;29;20031;-67
2023/03/01 02:20:10;;;;;;;23.38;12.02;;;;;;;-1.29;100.00;96297.66;1022997;29;20086;-66
2023/03/01 02:20:54;;;;;;;26.04;12.14;;;;;;;-1.32;100.00;96292.84;1022977;29;20034;-67
2023/03/01 02:21:46;;;;;;;25.42;11.88;;;;;;;-1.33;100.00;96293.03;1015547;29;20413;-67
2023/03/01 02:22:23;;;;;;;20.08;10.86;;;;;;;-1.33;100.00;96296.41;1019032;29;20523;-66
2023/03/01 02:22:53;;;;;;;24.00;11.88;;;;;;;-1.38;100.00;96283.22;1016560;29;20024;-66
2023/03/01 02:23:24;;;;;;;21.77;11.43;;;;;;;-1.36;100.00;96298.53;1018993;29;20024;-68
2023/03/01 02:23:57;;;;;;;24.17;12.25;;;;;;;-1.34;100.00;96291.41;1025969;28;20046;-68
2023/03/01 02:24:46;;;;;;;25.04;12.30;;;;;;;-1.35;100.00;96295.75;1027297;28;20065;-67
2023/03/01 02:25:19;;;;;;;23.24;11.28;;;;;;;-1.36;100.00;96299.31;1024365;28;20031;-66
2023/03/01 02:26:01;;;;;;;24.72;11.84;;;;;;;-1.40;100.00;96292.94;1023167;29;20031;-68
2023/03/01 02:26:41;;;;;;;26.12;12.50;;;;;;;-1.40;100.00;96295.50;1027552;28;20549;-66
2023/03/01 02:27:11;;;;;;;25.02;11.98;;;;;;;-1.41;100.00;96283.59;1023525;28;20023;-65
2023/03/01 02:27:49;;;;;;;23.15;13.38;;;;;;;-1.39;100.00;96288.56;1026293;28;20552;-67